sensor_id;sensor_type;location;lat;lon;timestamp;temperature;humidity
37050;DHT22;22958;51.232;6.826;2023-04-29T00:00:51;12.80;99.90
37050;DHT22;22958;51.232;6.826;2023-04-29T00:03:17;12.70;99.90
37050;DHT22;22958;51.232;6.826;2023-04-29T00:05:44;12.70;99.90
37050;DHT22;22958;51.232;6.826;2023-04-29T00:08:09;12.70;99.90
37050;DHT22;22958;51.232;6.826;2023-04-29T00:10:35;12.50;99.90
37050;DHT22;22958;51.232;6.826;2023-04-29T00:13:00;12.40;99.90
37050;DHT22;22958;51.232;6.826;2023-04-29T00:15:26;12.40;99.90
37050;DHT22;22958;51.232;6.826;2023-04-29T00:17:52;12.40;99.90
37050;DHT22;22958;51.232;6.826;2023-04-29T00:20:18;12.30;99.90
37050;DHT22;22958;51.232;6.826;2023-04-29T00:22:43;12.30;99.90
37050;DHT22;22958;51.232;6.826;2023-04-29T00:25:09;12.20;99.90
37050;DHT22;22958;51.232;6.826;2023-04-29T00:27:36;12.10;99.90
37050;DHT22;22958;51.232;6.826;2023-04-29T00:30:01;12.00;99.90
37050;DHT22;22958;51.232;6.826;2023-04-29T00:32:28;11.80;99.90
37050;DHT22;22958;51.232;6.826;2023-04-29T00:34:53;11.60;99.90
37050;DHT22;22958;51.232;6.826;2023-04-29T00:37:19;11.50;99.90
37050;DHT22;22958;51.232;6.826;2023-04-29T00:39:45;11.40;99.90
37050;DHT22;22958;51.232;6.826;2023-04-29T00:42:10;11.30;99.90
37050;DHT22;22958;51.232;6.826;2023-04-29T00:44:36;11.20;99.90
37050;DHT22;22958;51.232;6.826;2023-04-29T00:47:01;11.20;99.90
37050;DHT22;22958;51.232;6.826;2023-04-29T00:49:28;11.10;99.90
37050;DHT22;22958;51.232;6.826;2023-04-29T00:51:55;11.20;99.90
37050;DHT22;22958;51.232;6.826;2023-04-29T00:54:22;11.20;99.90
37050;DHT22;22958;51.232;6.826;2023-04-29T00:56:48;11.20;99.90
37050;DHT22;22958;51.232;6.826;2023-04-29T00:59:14;11.20;99.90
37050;DHT22;22958;51.232;6.826;2023-04-29T01:01:41;11.20;99.90
37050;DHT22;22958;51.232;6.826;2023-04-29T01:04:06;11.20;99.90
37050;DHT22;22958;51.232;6.826;2023-04-29T01:06:46;11.20;99.90
37050;DHT22;22958;51.232;6.826;2023-04-29T01:12:20;11.30;99.90
37050;DHT22;22958;51.232;6.826;2023-04-29T01:17:41;11.30;99.90
37050;DHT22;22958;51.232;6.826;2023-04-29T01:20:09;11.20;99.90
37050;DHT22;22958;51.232;6.826;2023-04-29T01:22:35;11.20;99.90
37050;DHT22;22958;51.232;6.826;2023-04-29T01:25:01;11.20;99.90
37050;DHT22;22958;51.232;6.826;2023-04-29T01:27:41;11.20;99.90
37050;DHT22;22958;51.232;6.826;2023-04-29T01:30:29;11.10;99.90
37050;DHT22;22958;51.232;6.826;2023-04-29T01:36:07;11.10;99.90
37050;DHT22;22958;51.232;6.826;2023-04-29T01:41:18;11.10;99.90
37050;DHT22;22958;51.232;6.826;2023-04-29T01:43:50;11.10;99.90
37050;DHT22;22958;51.232;6.826;2023-04-29T01:46:17;11.00;99.90
37050;DHT22;22958;51.232;6.826;2023-04-29T01:48:45;11.00;99.90
37050;DHT22;22958;51.232;6.826;2023-04-29T01:51:12;10.90;99.90
37050;DHT22;22958;51.232;6.826;2023-04-29T01:53:37;11.00;99.90
37050;DHT22;22958;51.232;6.826;2023-04-29T01:56:06;10.90;99.90
37050;DHT22;22958;51.232;6.826;2023-04-29T01:58:31;10.90;99.90
37050;DHT22;22958;51.232;6.826;2023-04-29T02:00:57;10.90;99.90
37050;DHT22;22958;51.232;6.826;2023-04-29T02:03:22;10.90;99.90
37050;DHT22;22958;51.232;6.826;2023-04-29T02:05:48;10.80;99.90
37050;DHT22;22958;51.232;6.826;2023-04-29T02:08:15;10.80;99.90
37050;DHT22;22958;51.232;6.826;2023-04-29T02:10:41;10.80;99.90
37050;DHT22;22958;51.232;6.826;2023-04-29T02:13:06;10.80;99.90
37050;DHT22;22958;51.232;6.826;2023-04-29T02:15:32;10.70;99.90
37050;DHT22;22958;51.232;6.826;2023-04-29T02:17:58;10.70;99.90
37050;DHT22;22958;51.232;6.826;2023-04-29T02:20:23;10.60;99.90
37050;DHT22;22958;51.232;6.826;2023-04-29T02:22:49;10.50;99.90
37050;DHT22;22958;51.232;6.826;2023-04-29T02:25:14;10.50;99.90
37050;DHT22;22958;51.232;6.826;2023-04-29T02:27:40;10.40;99.90
37050;DHT22;22958;51.232;6.826;2023-04-29T02:30:06;10.30;99.90
37050;DHT22;22958;51.232;6.826;2023-04-29T02:32:32;10.30;99.90
37050;DHT22;22958;51.232;6.826;2023-04-29T02:34:58;10.30;99.90
37050;DHT22;22958;51.232;6.826;2023-04-29T02:37:23;10.30;99.90
37050;DHT22;22958;51.232;6.826;2023-04-29T02:39:49;10.30;99.90
37050;DHT22;22958;51.232;6.826;2023-04-29T02:42:14;10.30;99.90
37050;DHT22;22958;51.232;6.826;2023-04-29T02:44:40;10.30;99.90
37050;DHT22;22958;51.232;6.826;2023-04-29T02:47:06;10.20;99.90
37050;DHT22;22958;51.232;6.826;2023-04-29T02:49:32;10.20;99.90
37050;DHT22;22958;51.232;6.826;2023-04-29T02:51:57;10.20;99.90
37050;DHT22;22958;51.232;6.826;2023-04-29T02:54:23;10.10;99.90
37050;DHT22;22958;51.232;6.826;2023-04-29T02:56:48;10.10;99.90
37050;DHT22;22958;51.232;6.826;2023-04-29T02:59:14;10.00;99.90
37050;DHT22;22958;51.232;6.826;2023-04-29T03:01:40;10.00;99.90
37050;DHT22;22958;51.232;6.826;2023-04-29T03:04:06;9.90;99.90
37050;DHT22;22958;51.232;6.826;2023-04-29T03:06:31;9.90;99.90
37050;DHT22;22958;51.232;6.826;2023-04-29T03:08:57;9.80;99.90
37050;DHT22;22958;51.232;6.826;2023-04-29T03:11:23;9.80;99.90
37050;DHT22;22958;51.232;6.826;2023-04-29T03:13:51;9.80;99.90
37050;DHT22;22958;51.232;6.826;2023-04-29T03:16:16;9.70;99.90
37050;DHT22;22958;51.232;6.826;2023-04-29T03:18:43;9.70;99.90
37050;DHT22;22958;51.232;6.826;2023-04-29T03:21:09;9.70;99.90
37050;DHT22;22958;51.232;6.826;2023-04-29T03:23:35;9.70;99.90
37050;DHT22;22958;51.232;6.826;2023-04-29T03:26:00;9.70;99.90
37050;DHT22;22958;51.232;6.826;2023-04-29T03:28:26;9.70;99.90
37050;DHT22;22958;51.232;6.826;2023-04-29T03:30:52;9.70;99.90
37050;DHT22;22958;51.232;6.826;2023-04-29T03:33:17;9.70;99.90
37050;DHT22;22958;51.232;6.826;2023-04-29T03:35:43;9.70;99.90
37050;DHT22;22958;51.232;6.826;2023-04-29T03:38:09;9.70;99.90
37050;DHT22;22958;51.232;6.826;2023-04-29T03:40:35;9.60;99.90
37050;DHT22;22958;51.232;6.826;2023-04-29T03:43:01;9.60;99.90
37050;DHT22;22958;51.232;6.826;2023-04-29T03:45:26;9.60;99.90
37050;DHT22;22958;51.232;6.826;2023-04-29T03:47:52;9.60;99.90
37050;DHT22;22958;51.232;6.826;2023-04-29T03:50:19;9.60;99.90
37050;DHT22;22958;51.232;6.826;2023-04-29T03:52:44;9.60;99.90
37050;DHT22;22958;51.232;6.826;2023-04-29T03:55:10;9.60;99.90
37050;DHT22;22958;51.232;6.826;2023-04-29T03:57:37;9.60;99.90
37050;DHT22;22958;51.232;6.826;2023-04-29T04:00:03;9.60;99.90
37050;DHT22;22958;51.232;6.826;2023-04-29T04:02:28;9.60;99.90
37050;DHT22;22958;51.232;6.826;2023-04-29T04:04:54;9.60;99.90
37050;DHT22;22958;51.232;6.826;2023-04-29T04:07:20;9.50;99.90
37050;DHT22;22958;51.232;6.826;2023-04-29T04:09:45;9.50;99.90
37050;DHT22;22958;51.232;6.826;2023-04-29T04:12:10;9.50;99.90
37050;DHT22;22958;51.232;6.826;2023-04-29T04:14:37;9.50;99.90
37050;DHT22;22958;51.232;6.826;2023-04-29T04:17:02;9.50;99.90
37050;DHT22;22958;51.232;6.826;2023-04-29T04:19:29;9.50;99.90
37050;DHT22;22958;51.232;6.826;2023-04-29T04:21:55;9.50;99.90
37050;DHT22;22958;51.232;6.826;2023-04-29T04:24:20;9.50;99.90
37050;DHT22;22958;51.232;6.826;2023-04-29T04:26:47;9.50;99.90
37050;DHT22;22958;51.232;6.826;2023-04-29T04:29:12;9.50;99.90
37050;DHT22;22958;51.232;6.826;2023-04-29T04:31:38;9.60;99.90
37050;DHT22;22958;51.232;6.826;2023-04-29T04:34:03;9.50;99.90
37050;DHT22;22958;51.232;6.826;2023-04-29T04:36:29;9.50;99.90
37050;DHT22;22958;51.232;6.826;2023-04-29T04:38:55;9.50;99.90
37050;DHT22;22958;51.232;6.826;2023-04-29T04:41:20;9.50;99.90
37050;DHT22;22958;51.232;6.826;2023-04-29T04:43:46;9.60;99.90
37050;DHT22;22958;51.232;6.826;2023-04-29T04:46:13;9.60;99.90
37050;DHT22;22958;51.232;6.826;2023-04-29T04:48:40;9.60;99.90
37050;DHT22;22958;51.232;6.826;2023-04-29T04:51:06;9.60;99.90
37050;DHT22;22958;51.232;6.826;2023-04-29T04:53:32;9.60;99.90
37050;DHT22;22958;51.232;6.826;2023-04-29T04:56:00;9.60;99.90
37050;DHT22;22958;51.232;6.826;2023-04-29T04:58:26;9.60;99.90
37050;DHT22;22958;51.232;6.826;2023-04-29T05:00:52;9.70;99.90
37050;DHT22;22958;51.232;6.826;2023-04-29T05:03:17;9.70;99.90
37050;DHT22;22958;51.232;6.826;2023-04-29T05:05:43;9.60;99.90
37050;DHT22;22958;51.232;6.826;2023-04-29T05:08:08;9.60;99.90
37050;DHT22;22958;51.232;6.826;2023-04-29T05:10:37;9.60;99.90
37050;DHT22;22958;51.232;6.826;2023-04-29T05:13:02;9.60;99.90
37050;DHT22;22958;51.232;6.826;2023-04-29T05:15:28;9.60;99.90
37050;DHT22;22958;51.232;6.826;2023-04-29T05:17:54;9.60;99.90
37050;DHT22;22958;51.232;6.826;2023-04-29T05:20:19;9.60;99.90
37050;DHT22;22958;51.232;6.826;2023-04-29T05:22:45;9.50;99.90
37050;DHT22;22958;51.232;6.826;2023-04-29T05:25:11;9.50;99.90
37050;DHT22;22958;51.232;6.826;2023-04-29T05:27:36;9.60;99.90
37050;DHT22;22958;51.232;6.826;2023-04-29T05:30:03;9.60;99.90
37050;DHT22;22958;51.232;6.826;2023-04-29T05:32:28;9.60;99.90
37050;DHT22;22958;51.232;6.826;2023-04-29T05:34:54;9.60;99.90
37050;DHT22;22958;51.232;6.826;2023-04-29T05:37:19;9.60;99.90
37050;DHT22;22958;51.232;6.826;2023-04-29T05:39:45;9.60;99.90
37050;DHT22;22958;51.232;6.826;2023-04-29T05:42:10;9.60;99.90
37050;DHT22;22958;51.232;6.826;2023-04-29T05:44:36;9.60;99.90
37050;DHT22;22958;51.232;6.826;2023-04-29T05:47:01;9.60;99.90
37050;DHT22;22958;51.232;6.826;2023-04-29T05:49:27;9.60;99.90
37050;DHT22;22958;51.232;6.826;2023-04-29T05:51:52;9.60;99.90
37050;DHT22;22958;51.232;6.826;2023-04-29T05:54:18;9.60;99.90
37050;DHT22;22958;51.232;6.826;2023-04-29T05:56:43;9.70;99.90
37050;DHT22;22958;51.232;6.826;2023-04-29T05:59:09;9.70;99.90
37050;DHT22;22958;51.232;6.826;2023-04-29T06:01:34;9.80;99.90
37050;DHT22;22958;51.232;6.826;2023-04-29T06:04:00;9.80;99.90
37050;DHT22;22958;51.232;6.826;2023-04-29T06:06:25;9.80;99.90
37050;DHT22;22958;51.232;6.826;2023-04-29T06:08:51;9.80;99.90
37050;DHT22;22958;51.232;6.826;2023-04-29T06:11:17;9.90;99.90
37050;DHT22;22958;51.232;6.826;2023-04-29T06:13:43;9.90;99.90
37050;DHT22;22958;51.232;6.826;2023-04-29T06:16:10;10.00;99.90
37050;DHT22;22958;51.232;6.826;2023-04-29T06:18:35;9.90;99.90
37050;DHT22;22958;51.232;6.826;2023-04-29T06:21:02;10.00;99.90
37050;DHT22;22958;51.232;6.826;2023-04-29T06:23:28;10.00;99.90
37050;DHT22;22958;51.232;6.826;2023-04-29T06:25:53;10.10;99.90
37050;DHT22;22958;51.232;6.826;2023-04-29T06:28:19;10.10;99.90
37050;DHT22;22958;51.232;6.826;2023-04-29T06:30:45;10.00;99.90
37050;DHT22;22958;51.232;6.826;2023-04-29T06:33:10;10.10;99.90
37050;DHT22;22958;51.232;6.826;2023-04-29T06:35:39;10.20;99.90
37050;DHT22;22958;51.232;6.826;2023-04-29T06:38:05;10.20;99.90
37050;DHT22;22958;51.232;6.826;2023-04-29T06:40:33;10.10;99.90
37050;DHT22;22958;51.232;6.826;2023-04-29T06:42:58;10.10;99.90
37050;DHT22;22958;51.232;6.826;2023-04-29T06:45:24;10.10;99.90
37050;DHT22;22958;51.232;6.826;2023-04-29T06:47:50;10.10;99.90
37050;DHT22;22958;51.232;6.826;2023-04-29T06:50:15;10.10;99.90
37050;DHT22;22958;51.232;6.826;2023-04-29T06:52:41;10.10;99.90
37050;DHT22;22958;51.232;6.826;2023-04-29T06:55:06;10.10;99.90
37050;DHT22;22958;51.232;6.826;2023-04-29T06:57:32;10.00;99.90
37050;DHT22;22958;51.232;6.826;2023-04-29T06:59:58;10.10;99.90
37050;DHT22;22958;51.232;6.826;2023-04-29T07:02:23;10.00;99.90
37050;DHT22;22958;51.232;6.826;2023-04-29T07:04:49;10.00;99.90
37050;DHT22;22958;51.232;6.826;2023-04-29T07:07:15;10.00;99.90
37050;DHT22;22958;51.232;6.826;2023-04-29T07:09:41;10.00;99.90
37050;DHT22;22958;51.232;6.826;2023-04-29T07:12:06;10.10;99.90
37050;DHT22;22958;51.232;6.826;2023-04-29T07:14:32;10.10;99.90
37050;DHT22;22958;51.232;6.826;2023-04-29T07:16:57;10.10;99.90
37050;DHT22;22958;51.232;6.826;2023-04-29T07:19:23;10.20;99.90
37050;DHT22;22958;51.232;6.826;2023-04-29T07:21:48;10.20;99.90
37050;DHT22;22958;51.232;6.826;2023-04-29T07:24:14;10.20;99.90
37050;DHT22;22958;51.232;6.826;2023-04-29T07:26:42;10.30;99.90
37050;DHT22;22958;51.232;6.826;2023-04-29T07:29:08;10.30;99.90
37050;DHT22;22958;51.232;6.826;2023-04-29T07:31:33;10.30;99.90
37050;DHT22;22958;51.232;6.826;2023-04-29T07:33:59;10.20;99.90
37050;DHT22;22958;51.232;6.826;2023-04-29T07:36:24;10.30;99.90
37050;DHT22;22958;51.232;6.826;2023-04-29T07:38:50;10.40;99.90
37050;DHT22;22958;51.232;6.826;2023-04-29T07:41:15;10.30;99.90
37050;DHT22;22958;51.232;6.826;2023-04-29T07:43:41;10.40;99.90
37050;DHT22;22958;51.232;6.826;2023-04-29T07:46:07;10.30;99.90
37050;DHT22;22958;51.232;6.826;2023-04-29T07:48:38;10.20;99.90
37050;DHT22;22958;51.232;6.826;2023-04-29T07:51:04;10.20;99.90
37050;DHT22;22958;51.232;6.826;2023-04-29T07:53:31;10.30;99.90
37050;DHT22;22958;51.232;6.826;2023-04-29T07:55:56;10.20;99.90
37050;DHT22;22958;51.232;6.826;2023-04-29T07:58:22;10.20;99.90
37050;DHT22;22958;51.232;6.826;2023-04-29T08:00:47;10.20;99.90
37050;DHT22;22958;51.232;6.826;2023-04-29T08:03:13;10.30;99.90
37050;DHT22;22958;51.232;6.826;2023-04-29T08:05:39;10.30;99.90
37050;DHT22;22958;51.232;6.826;2023-04-29T08:08:04;10.40;99.90
37050;DHT22;22958;51.232;6.826;2023-04-29T08:10:30;10.30;99.90
37050;DHT22;22958;51.232;6.826;2023-04-29T08:12:56;10.40;99.90
37050;DHT22;22958;51.232;6.826;2023-04-29T08:15:22;10.60;99.90
37050;DHT22;22958;51.232;6.826;2023-04-29T08:17:47;10.70;99.90
37050;DHT22;22958;51.232;6.826;2023-04-29T08:20:13;10.70;99.90
37050;DHT22;22958;51.232;6.826;2023-04-29T08:22:39;10.70;99.90
37050;DHT22;22958;51.232;6.826;2023-04-29T08:25:05;10.70;99.90
37050;DHT22;22958;51.232;6.826;2023-04-29T08:27:31;10.70;99.90
37050;DHT22;22958;51.232;6.826;2023-04-29T08:29:56;10.60;99.90
37050;DHT22;22958;51.232;6.826;2023-04-29T08:32:22;10.60;99.90
37050;DHT22;22958;51.232;6.826;2023-04-29T08:34:48;10.60;99.90
37050;DHT22;22958;51.232;6.826;2023-04-29T08:37:13;10.60;99.90
37050;DHT22;22958;51.232;6.826;2023-04-29T08:39:39;10.60;99.90
37050;DHT22;22958;51.232;6.826;2023-04-29T08:42:10;10.50;99.90
37050;DHT22;22958;51.232;6.826;2023-04-29T08:44:36;10.60;99.90
37050;DHT22;22958;51.232;6.826;2023-04-29T08:47:02;10.60;99.90
37050;DHT22;22958;51.232;6.826;2023-04-29T08:49:28;10.70;99.90
37050;DHT22;22958;51.232;6.826;2023-04-29T08:51:54;10.70;99.90
37050;DHT22;22958;51.232;6.826;2023-04-29T08:54:20;10.80;99.90
37050;DHT22;22958;51.232;6.826;2023-04-29T08:56:46;10.60;99.90
37050;DHT22;22958;51.232;6.826;2023-04-29T08:59:14;10.50;99.90
37050;DHT22;22958;51.232;6.826;2023-04-29T09:01:41;10.50;99.90
37050;DHT22;22958;51.232;6.826;2023-04-29T09:04:33;10.50;99.90
37050;DHT22;22958;51.232;6.826;2023-04-29T09:07:03;10.50;99.90
37050;DHT22;22958;51.232;6.826;2023-04-29T09:09:29;10.50;99.90
37050;DHT22;22958;51.232;6.826;2023-04-29T09:11:57;10.60;99.90
37050;DHT22;22958;51.232;6.826;2023-04-29T09:14:23;10.60;99.90
37050;DHT22;22958;51.232;6.826;2023-04-29T09:16:49;10.60;99.90
37050;DHT22;22958;51.232;6.826;2023-04-29T09:19:32;10.60;99.90
37050;DHT22;22958;51.232;6.826;2023-04-29T09:21:59;10.60;99.90
37050;DHT22;22958;51.232;6.826;2023-04-29T09:24:26;10.60;99.90
37050;DHT22;22958;51.232;6.826;2023-04-29T09:26:52;10.60;99.90
37050;DHT22;22958;51.232;6.826;2023-04-29T09:29:17;10.60;99.90
37050;DHT22;22958;51.232;6.826;2023-04-29T09:31:44;10.50;99.90
37050;DHT22;22958;51.232;6.826;2023-04-29T09:34:10;10.40;99.90
37050;DHT22;22958;51.232;6.826;2023-04-29T09:36:48;10.50;99.90
37050;DHT22;22958;51.232;6.826;2023-04-29T09:39:18;10.70;99.90
37050;DHT22;22958;51.232;6.826;2023-04-29T09:44:28;10.70;99.90
37050;DHT22;22958;51.232;6.826;2023-04-29T09:49:35;10.80;99.90
37050;DHT22;22958;51.232;6.826;2023-04-29T09:52:04;10.80;99.90
37050;DHT22;22958;51.232;6.826;2023-04-29T09:54:34;10.80;99.90
37050;DHT22;22958;51.232;6.826;2023-04-29T09:57:01;10.80;99.90
37050;DHT22;22958;51.232;6.826;2023-04-29T09:59:30;10.90;99.90
37050;DHT22;22958;51.232;6.826;2023-04-29T10:01:57;10.90;99.90
37050;DHT22;22958;51.232;6.826;2023-04-29T10:04:24;10.80;99.90
37050;DHT22;22958;51.232;6.826;2023-04-29T10:06:52;10.80;99.90
37050;DHT22;22958;51.232;6.826;2023-04-29T10:09:18;10.80;99.90
37050;DHT22;22958;51.232;6.826;2023-04-29T10:11:45;10.90;99.90
37050;DHT22;22958;51.232;6.826;2023-04-29T10:14:12;11.10;99.90
37050;DHT22;22958;51.232;6.826;2023-04-29T10:16:44;11.20;99.90
37050;DHT22;22958;51.232;6.826;2023-04-29T10:19:11;11.00;99.90
37050;DHT22;22958;51.232;6.826;2023-04-29T10:21:39;11.00;99.90
37050;DHT22;22958;51.232;6.826;2023-04-29T10:24:05;10.90;99.90
37050;DHT22;22958;51.232;6.826;2023-04-29T10:26:33;11.00;99.90
37050;DHT22;22958;51.232;6.826;2023-04-29T10:29:01;11.20;99.90
37050;DHT22;22958;51.232;6.826;2023-04-29T10:31:28;11.20;99.90
37050;DHT22;22958;51.232;6.826;2023-04-29T10:33:55;11.20;99.90
37050;DHT22;22958;51.232;6.826;2023-04-29T10:36:22;11.20;99.90
37050;DHT22;22958;51.232;6.826;2023-04-29T10:38:48;11.20;99.90
37050;DHT22;22958;51.232;6.826;2023-04-29T10:41:20;11.20;99.90
37050;DHT22;22958;51.232;6.826;2023-04-29T10:43:49;11.30;99.90
37050;DHT22;22958;51.232;6.826;2023-04-29T10:48:42;11.80;99.90
37050;DHT22;22958;51.232;6.826;2023-04-29T10:51:08;11.60;99.90
37050;DHT22;22958;51.232;6.826;2023-04-29T10:53:34;11.60;99.90
37050;DHT22;22958;51.232;6.826;2023-04-29T10:56:09;11.80;99.90
37050;DHT22;22958;51.232;6.826;2023-04-29T10:58:43;11.80;99.90
37050;DHT22;22958;51.232;6.826;2023-04-29T11:01:13;11.90;99.90
37050;DHT22;22958;51.232;6.826;2023-04-29T11:03:57;12.30;99.90
37050;DHT22;22958;51.232;6.826;2023-04-29T11:09:10;12.20;99.90
37050;DHT22;22958;51.232;6.826;2023-04-29T11:11:44;12.40;99.90
37050;DHT22;22958;51.232;6.826;2023-04-29T11:14:12;12.20;99.90
37050;DHT22;22958;51.232;6.826;2023-04-29T11:16:45;12.10;99.90
37050;DHT22;22958;51.232;6.826;2023-04-29T11:19:14;12.00;99.90
37050;DHT22;22958;51.232;6.826;2023-04-29T11:21:40;12.40;99.90
37050;DHT22;22958;51.232;6.826;2023-04-29T11:24:06;13.20;99.90
37050;DHT22;22958;51.232;6.826;2023-04-29T11:26:35;13.80;99.90
37050;DHT22;22958;51.232;6.826;2023-04-29T11:29:00;13.60;99.90
37050;DHT22;22958;51.232;6.826;2023-04-29T11:31:35;12.90;99.90
37050;DHT22;22958;51.232;6.826;2023-04-29T11:34:03;12.90;99.90
37050;DHT22;22958;51.232;6.826;2023-04-29T11:36:31;12.80;99.90
37050;DHT22;22958;51.232;6.826;2023-04-29T11:38:59;12.70;99.90
37050;DHT22;22958;51.232;6.826;2023-04-29T11:41:26;13.00;99.90
37050;DHT22;22958;51.232;6.826;2023-04-29T11:43:56;13.30;99.90
37050;DHT22;22958;51.232;6.826;2023-04-29T11:46:22;13.50;99.90
37050;DHT22;22958;51.232;6.826;2023-04-29T11:48:48;13.40;99.90
37050;DHT22;22958;51.232;6.826;2023-04-29T11:51:15;13.40;99.90
37050;DHT22;22958;51.232;6.826;2023-04-29T11:53:41;13.40;99.90
37050;DHT22;22958;51.232;6.826;2023-04-29T11:56:08;14.10;99.90
37050;DHT22;22958;51.232;6.826;2023-04-29T11:58:35;14.50;99.90
37050;DHT22;22958;51.232;6.826;2023-04-29T12:01:02;14.30;99.90
37050;DHT22;22958;51.232;6.826;2023-04-29T12:03:30;14.40;99.90
37050;DHT22;22958;51.232;6.826;2023-04-29T12:05:56;14.80;99.90
37050;DHT22;22958;51.232;6.826;2023-04-29T12:08:23;14.50;99.90
37050;DHT22;22958;51.232;6.826;2023-04-29T12:10:49;14.20;99.90
37050;DHT22;22958;51.232;6.826;2023-04-29T12:13:16;13.90;99.90
37050;DHT22;22958;51.232;6.826;2023-04-29T12:15:42;14.20;99.90
37050;DHT22;22958;51.232;6.826;2023-04-29T12:18:08;14.70;99.90
37050;DHT22;22958;51.232;6.826;2023-04-29T12:20:34;15.10;99.90
37050;DHT22;22958;51.232;6.826;2023-04-29T12:23:13;15.00;99.90
37050;DHT22;22958;51.232;6.826;2023-04-29T12:25:40;14.90;99.90
37050;DHT22;22958;51.232;6.826;2023-04-29T12:28:11;15.00;99.90
37050;DHT22;22958;51.232;6.826;2023-04-29T12:30:37;15.00;99.90
37050;DHT22;22958;51.232;6.826;2023-04-29T12:33:02;14.60;99.90
37050;DHT22;22958;51.232;6.826;2023-04-29T12:35:28;15.10;99.90
37050;DHT22;22958;51.232;6.826;2023-04-29T12:37:53;15.50;99.90
37050;DHT22;22958;51.232;6.826;2023-04-29T12:40:22;15.90;99.90
37050;DHT22;22958;51.232;6.826;2023-04-29T12:42:49;16.20;99.90
37050;DHT22;22958;51.232;6.826;2023-04-29T12:45:27;15.30;99.90
37050;DHT22;22958;51.232;6.826;2023-04-29T12:47:55;15.30;99.90
37050;DHT22;22958;51.232;6.826;2023-04-29T12:50:30;15.00;99.90
37050;DHT22;22958;51.232;6.826;2023-04-29T12:52:56;15.00;99.90
37050;DHT22;22958;51.232;6.826;2023-04-29T12:55:21;14.70;99.90
37050;DHT22;22958;51.232;6.826;2023-04-29T12:57:47;14.80;99.90
37050;DHT22;22958;51.232;6.826;2023-04-29T13:00:12;15.00;99.90
37050;DHT22;22958;51.232;6.826;2023-04-29T13:02:39;15.50;99.90
37050;DHT22;22958;51.232;6.826;2023-04-29T13:05:05;16.00;99.90
37050;DHT22;22958;51.232;6.826;2023-04-29T13:07:30;16.30;99.90
37050;DHT22;22958;51.232;6.826;2023-04-29T13:09:56;16.00;99.90
37050;DHT22;22958;51.232;6.826;2023-04-29T13:12:21;16.30;99.90
37050;DHT22;22958;51.232;6.826;2023-04-29T13:14:47;16.10;99.90
37050;DHT22;22958;51.232;6.826;2023-04-29T13:17:12;16.00;99.90
37050;DHT22;22958;51.232;6.826;2023-04-29T13:19:38;15.30;99.90
37050;DHT22;22958;51.232;6.826;2023-04-29T13:22:04;14.70;99.90
37050;DHT22;22958;51.232;6.826;2023-04-29T13:24:29;14.50;99.90
37050;DHT22;22958;51.232;6.826;2023-04-29T13:26:55;14.50;99.90
37050;DHT22;22958;51.232;6.826;2023-04-29T13:29:21;14.50;99.90
37050;DHT22;22958;51.232;6.826;2023-04-29T13:31:46;14.70;99.90
37050;DHT22;22958;51.232;6.826;2023-04-29T13:34:12;14.80;99.90
37050;DHT22;22958;51.232;6.826;2023-04-29T13:36:37;14.80;99.90
37050;DHT22;22958;51.232;6.826;2023-04-29T13:39:03;14.90;99.90
37050;DHT22;22958;51.232;6.826;2023-04-29T13:41:28;15.10;99.90
37050;DHT22;22958;51.232;6.826;2023-04-29T13:43:54;15.10;99.90
37050;DHT22;22958;51.232;6.826;2023-04-29T13:46:19;15.20;99.90
37050;DHT22;22958;51.232;6.826;2023-04-29T13:48:46;15.10;99.90
37050;DHT22;22958;51.232;6.826;2023-04-29T13:51:11;15.20;99.90
37050;DHT22;22958;51.232;6.826;2023-04-29T13:53:37;15.10;99.90
37050;DHT22;22958;51.232;6.826;2023-04-29T13:56:02;14.70;99.90
37050;DHT22;22958;51.232;6.826;2023-04-29T13:58:28;14.60;99.90
37050;DHT22;22958;51.232;6.826;2023-04-29T14:00:54;14.30;99.90
37050;DHT22;22958;51.232;6.826;2023-04-29T14:03:19;14.20;99.90
37050;DHT22;22958;51.232;6.826;2023-04-29T14:05:45;13.90;99.90
37050;DHT22;22958;51.232;6.826;2023-04-29T14:08:10;13.80;99.90
37050;DHT22;22958;51.232;6.826;2023-04-29T14:10:36;13.80;99.90
37050;DHT22;22958;51.232;6.826;2023-04-29T14:13:02;13.80;99.90
37050;DHT22;22958;51.232;6.826;2023-04-29T14:15:27;13.80;99.90
37050;DHT22;22958;51.232;6.826;2023-04-29T14:17:53;13.80;99.90
37050;DHT22;22958;51.232;6.826;2023-04-29T14:20:19;14.00;99.90
37050;DHT22;22958;51.232;6.826;2023-04-29T14:22:45;14.00;99.90
37050;DHT22;22958;51.232;6.826;2023-04-29T14:25:11;14.00;99.90
37050;DHT22;22958;51.232;6.826;2023-04-29T14:27:37;14.10;99.90
37050;DHT22;22958;51.232;6.826;2023-04-29T14:30:02;14.10;99.90
37050;DHT22;22958;51.232;6.826;2023-04-29T14:32:29;14.10;99.90
37050;DHT22;22958;51.232;6.826;2023-04-29T14:34:54;14.10;99.90
37050;DHT22;22958;51.232;6.826;2023-04-29T14:37:20;14.40;99.90
37050;DHT22;22958;51.232;6.826;2023-04-29T14:39:45;14.60;99.90
37050;DHT22;22958;51.232;6.826;2023-04-29T14:42:11;14.60;99.90
37050;DHT22;22958;51.232;6.826;2023-04-29T14:44:37;14.50;99.90
37050;DHT22;22958;51.232;6.826;2023-04-29T14:47:03;14.40;99.90
37050;DHT22;22958;51.232;6.826;2023-04-29T14:49:29;14.10;99.90
37050;DHT22;22958;51.232;6.826;2023-04-29T14:51:54;14.30;99.90
37050;DHT22;22958;51.232;6.826;2023-04-29T14:54:20;14.30;99.90
37050;DHT22;22958;51.232;6.826;2023-04-29T14:56:45;14.40;99.90
37050;DHT22;22958;51.232;6.826;2023-04-29T14:59:11;14.40;99.90
37050;DHT22;22958;51.232;6.826;2023-04-29T15:01:36;14.40;99.90
37050;DHT22;22958;51.232;6.826;2023-04-29T15:04:04;14.40;99.90
37050;DHT22;22958;51.232;6.826;2023-04-29T15:06:30;14.50;99.90
37050;DHT22;22958;51.232;6.826;2023-04-29T15:08:56;14.60;99.90
37050;DHT22;22958;51.232;6.826;2023-04-29T15:11:22;14.60;99.90
37050;DHT22;22958;51.232;6.826;2023-04-29T15:13:48;14.80;99.90
37050;DHT22;22958;51.232;6.826;2023-04-29T15:16:14;14.70;99.90
37050;DHT22;22958;51.232;6.826;2023-04-29T15:18:39;14.90;99.90
37050;DHT22;22958;51.232;6.826;2023-04-29T15:21:06;15.20;99.90
37050;DHT22;22958;51.232;6.826;2023-04-29T15:23:31;15.20;99.90
37050;DHT22;22958;51.232;6.826;2023-04-29T15:25:57;15.30;99.90
37050;DHT22;22958;51.232;6.826;2023-04-29T15:28:23;15.60;99.90
37050;DHT22;22958;51.232;6.826;2023-04-29T15:30:50;15.90;99.90
37050;DHT22;22958;51.232;6.826;2023-04-29T15:33:15;16.00;99.90
37050;DHT22;22958;51.232;6.826;2023-04-29T15:35:41;16.10;99.90
37050;DHT22;22958;51.232;6.826;2023-04-29T15:38:07;16.30;99.90
37050;DHT22;22958;51.232;6.826;2023-04-29T15:40:32;16.20;99.90
37050;DHT22;22958;51.232;6.826;2023-04-29T15:42:58;16.20;99.90
37050;DHT22;22958;51.232;6.826;2023-04-29T15:45:23;16.00;99.90
37050;DHT22;22958;51.232;6.826;2023-04-29T15:47:49;15.60;99.90
37050;DHT22;22958;51.232;6.826;2023-04-29T15:50:14;15.50;99.90
37050;DHT22;22958;51.232;6.826;2023-04-29T15:52:40;15.50;99.90